sensor_id;sensor_type;location;lat;lon;timestamp;P1;durP1;ratioP1;P2;durP2;ratioP2
37205;SDS011;23099;42.636;23.198;2023-03-14T00:00:57;37.28;;;12.68;;
37205;SDS011;23099;42.636;23.198;2023-03-14T00:03:24;39.00;;;13.87;;
37205;SDS011;23099;42.636;23.198;2023-03-14T00:05:50;46.30;;;17.47;;
37205;SDS011;23099;42.636;23.198;2023-03-14T00:08:17;40.97;;;15.20;;
37205;SDS011;23099;42.636;23.198;2023-03-14T00:10:46;14.23;;;5.47;;
37205;SDS011;23099;42.636;23.198;2023-03-14T00:13:13;30.60;;;10.37;;
37205;SDS011;23099;42.636;23.198;2023-03-14T00:15:41;26.17;;;9.50;;
37205;SDS011;23099;42.636;23.198;2023-03-14T00:18:07;36.50;;;13.10;;
37205;SDS011;23099;42.636;23.198;2023-03-14T00:20:34;33.53;;;11.77;;
37205;SDS011;23099;42.636;23.198;2023-03-14T00:23:01;24.20;;;8.03;;
37205;SDS011;23099;42.636;23.198;2023-03-14T00:25:28;11.53;;;3.50;;
37205;SDS011;23099;42.636;23.198;2023-03-14T00:27:54;10.00;;;2.73;;
37205;SDS011;23099;42.636;23.198;2023-03-14T00:30:21;15.13;;;4.37;;
37205;SDS011;23099;42.636;23.198;2023-03-14T00:32:49;56.13;;;12.23;;
37205;SDS011;23099;42.636;23.198;2023-03-14T00:35:16;55.10;;;16.35;;
37205;SDS011;23099;42.636;23.198;2023-03-14T00:37:42;44.93;;;15.47;;
37205;SDS011;23099;42.636;23.198;2023-03-14T00:40:09;44.10;;;16.83;;
37205;SDS011;23099;42.636;23.198;2023-03-14T00:42:36;36.20;;;13.27;;
37205;SDS011;23099;42.636;23.198;2023-03-14T00:45:03;69.87;;;25.97;;
37205;SDS011;23099;42.636;23.198;2023-03-14T00:47:32;75.30;;;25.93;;
37205;SDS011;23099;42.636;23.198;2023-03-14T00:50:00;73.53;;;27.93;;
37205;SDS011;23099;42.636;23.198;2023-03-14T00:52:27;43.88;;;16.40;;
37205;SDS011;23099;42.636;23.198;2023-03-14T00:54:54;46.70;;;17.03;;
37205;SDS011;23099;42.636;23.198;2023-03-14T00:57:20;22.40;;;8.47;;
37205;SDS011;23099;42.636;23.198;2023-03-14T00:59:47;34.23;;;10.37;;
37205;SDS011;23099;42.636;23.198;2023-03-14T01:02:14;34.57;;;14.73;;
37205;SDS011;23099;42.636;23.198;2023-03-14T01:04:40;43.50;;;18.57;;
37205;SDS011;23099;42.636;23.198;2023-03-14T01:07:09;47.10;;;20.02;;
37205;SDS011;23099;42.636;23.198;2023-03-14T01:09:36;27.73;;;11.02;;
37205;SDS011;23099;42.636;23.198;2023-03-14T01:12:03;22.47;;;8.83;;
37205;SDS011;23099;42.636;23.198;2023-03-14T01:14:29;21.10;;;8.73;;
37205;SDS011;23099;42.636;23.198;2023-03-14T01:16:56;19.33;;;6.70;;
37205;SDS011;23099;42.636;23.198;2023-03-14T01:19:26;46.83;;;16.53;;
37205;SDS011;23099;42.636;23.198;2023-03-14T01:21:53;77.83;;;23.40;;
37205;SDS011;23099;42.636;23.198;2023-03-14T01:24:21;86.67;;;23.33;;
37205;SDS011;23099;42.636;23.198;2023-03-14T01:26:47;45.63;;;17.15;;
37205;SDS011;23099;42.636;23.198;2023-03-14T01:29:14;41.27;;;16.50;;
37205;SDS011;23099;42.636;23.198;2023-03-14T01:31:41;51.77;;;18.40;;
37205;SDS011;23099;42.636;23.198;2023-03-14T01:34:07;59.53;;;19.67;;
37205;SDS011;23099;42.636;23.198;2023-03-14T01:36:34;50.43;;;17.13;;
37205;SDS011;23099;42.636;23.198;2023-03-14T01:39:01;65.70;;;25.53;;
37205;SDS011;23099;42.636;23.198;2023-03-14T01:41:30;74.57;;;28.87;;
37205;SDS011;23099;42.636;23.198;2023-03-14T01:43:56;59.80;;;27.38;;
37205;SDS011;23099;42.636;23.198;2023-03-14T01:46:24;36.83;;;16.07;;
37205;SDS011;23099;42.636;23.198;2023-03-14T01:51:53;19.63;;;8.40;;
37205;SDS011;23099;42.636;23.198;2023-03-14T01:54:25;20.83;;;8.40;;
37205;SDS011;23099;42.636;23.198;2023-03-14T01:56:57;36.87;;;13.87;;
37205;SDS011;23099;42.636;23.198;2023-03-14T01:59:27;28.30;;;12.33;;
37205;SDS011;23099;42.636;23.198;2023-03-14T02:04:23;110.03;;;56.80;;
37205;SDS011;23099;42.636;23.198;2023-03-14T02:06:55;131.63;;;94.00;;
37205;SDS011;23099;42.636;23.198;2023-03-14T02:09:29;41.53;;;20.40;;
37205;SDS011;23099;42.636;23.198;2023-03-14T02:11:58;15.50;;;6.83;;
37205;SDS011;23099;42.636;23.198;2023-03-14T02:14:28;12.90;;;4.60;;
37205;SDS011;23099;42.636;23.198;2023-03-14T02:16:58;9.63;;;3.50;;
37205;SDS011;23099;42.636;23.198;2023-03-14T02:19:28;9.15;;;3.67;;
37205;SDS011;23099;42.636;23.198;2023-03-14T02:22:03;9.67;;;3.77;;
37205;SDS011;23099;42.636;23.198;2023-03-14T02:24:35;10.03;;;3.40;;
37205;SDS011;23099;42.636;23.198;2023-03-14T02:27:11;11.23;;;3.80;;
37205;SDS011;23099;42.636;23.198;2023-03-14T02:29:40;18.10;;;9.57;;
37205;SDS011;23099;42.636;23.198;2023-03-14T02:32:12;24.57;;;13.33;;
37205;SDS011;23099;42.636;23.198;2023-03-14T02:34:41;20.97;;;9.63;;
37205;SDS011;23099;42.636;23.198;2023-03-14T02:37:12;12.27;;;4.80;;
37205;SDS011;23099;42.636;23.198;2023-03-14T02:39:43;11.37;;;4.10;;
37205;SDS011;23099;42.636;23.198;2023-03-14T02:42:12;11.77;;;4.27;;
37205;SDS011;23099;42.636;23.198;2023-03-14T02:44:51;53.17;;;15.53;;
37205;SDS011;23099;42.636;23.198;2023-03-14T02:47:20;59.90;;;16.80;;
37205;SDS011;23099;42.636;23.198;2023-03-14T02:49:53;53.90;;;15.70;;
37205;SDS011;23099;42.636;23.198;2023-03-14T02:52:24;54.40;;;14.73;;
37205;SDS011;23099;42.636;23.198;2023-03-14T02:54:51;41.80;;;14.00;;
37205;SDS011;23099;42.636;23.198;2023-03-14T02:57:19;82.30;;;19.67;;
37205;SDS011;23099;42.636;23.198;2023-03-14T02:59:45;58.40;;;17.20;;
37205;SDS011;23099;42.636;23.198;2023-03-14T03:02:12;27.50;;;11.67;;
37205;SDS011;23099;42.636;23.198;2023-03-14T03:04:39;28.60;;;12.13;;
37205;SDS011;23099;42.636;23.198;2023-03-14T03:07:05;24.93;;;12.00;;
37205;SDS011;23099;42.636;23.198;2023-03-14T03:09:32;21.13;;;10.00;;
37205;SDS011;23099;42.636;23.198;2023-03-14T03:11:59;15.10;;;6.17;;
37205;SDS011;23099;42.636;23.198;2023-03-14T03:14:27;14.17;;;4.80;;
37205;SDS011;23099;42.636;23.198;2023-03-14T03:16:54;22.65;;;8.65;;
37205;SDS011;23099;42.636;23.198;2023-03-14T03:19:20;14.67;;;5.23;;
37205;SDS011;23099;42.636;23.198;2023-03-14T03:21:47;10.43;;;4.13;;
37205;SDS011;23099;42.636;23.198;2023-03-14T03:24:14;20.03;;;7.10;;
37205;SDS011;23099;42.636;23.198;2023-03-14T03:26:41;23.47;;;11.70;;
37205;SDS011;23099;42.636;23.198;2023-03-14T03:29:07;29.83;;;19.03;;
37205;SDS011;23099;42.636;23.198;2023-03-14T03:31:37;17.30;;;7.53;;
37205;SDS011;23099;42.636;23.198;2023-03-14T03:34:04;17.50;;;12.50;;
37205;SDS011;23099;42.636;23.198;2023-03-14T03:36:31;30.23;;;19.80;;
37205;SDS011;23099;42.636;23.198;2023-03-14T03:38:58;67.37;;;23.93;;
37205;SDS011;23099;42.636;23.198;2023-03-14T03:41:24;52.00;;;15.37;;
37205;SDS011;23099;42.636;23.198;2023-03-14T03:43:51;54.30;;;15.47;;
37205;SDS011;23099;42.636;23.198;2023-03-14T03:46:19;20.25;;;6.90;;
37205;SDS011;23099;42.636;23.198;2023-03-14T03:48:47;49.60;;;17.20;;
37205;SDS011;23099;42.636;23.198;2023-03-14T03:51:14;18.05;;;6.40;;
37205;SDS011;23099;42.636;23.198;2023-03-14T03:53:42;15.10;;;6.85;;
37205;SDS011;23099;42.636;23.198;2023-03-14T03:56:09;12.77;;;5.60;;
37205;SDS011;23099;42.636;23.198;2023-03-14T03:58:35;12.93;;;5.50;;
37205;SDS011;23099;42.636;23.198;2023-03-14T04:01:04;16.92;;;7.15;;
37205;SDS011;23099;42.636;23.198;2023-03-14T04:03:31;18.33;;;7.97;;
37205;SDS011;23099;42.636;23.198;2023-03-14T04:06:00;49.07;;;18.13;;
37205;SDS011;23099;42.636;23.198;2023-03-14T04:08:27;60.43;;;27.13;;
37205;SDS011;23099;42.636;23.198;2023-03-14T04:10:55;21.97;;;9.17;;
37205;SDS011;23099;42.636;23.198;2023-03-14T04:13:23;18.90;;;10.07;;
37205;SDS011;23099;42.636;23.198;2023-03-14T04:15:50;22.57;;;11.60;;
37205;SDS011;23099;42.636;23.198;2023-03-14T04:18:17;21.70;;;9.87;;
37205;SDS011;23099;42.636;23.198;2023-03-14T04:20:44;29.27;;;14.40;;
37205;SDS011;23099;42.636;23.198;2023-03-14T04:23:12;17.10;;;8.40;;
37205;SDS011;23099;42.636;23.198;2023-03-14T04:25:38;34.13;;;16.25;;
37205;SDS011;23099;42.636;23.198;2023-03-14T04:28:05;40.20;;;16.07;;
37205;SDS011;23099;42.636;23.198;2023-03-14T04:30:32;40.40;;;18.97;;
37205;SDS011;23099;42.636;23.198;2023-03-14T04:32:58;25.33;;;11.93;;
37205;SDS011;23099;42.636;23.198;2023-03-14T04:35:25;19.53;;;8.27;;
37205;SDS011;23099;42.636;23.198;2023-03-14T04:37:52;25.03;;;10.90;;
37205;SDS011;23099;42.636;23.198;2023-03-14T04:40:20;25.33;;;10.60;;
37205;SDS011;23099;42.636;23.198;2023-03-14T04:42:47;26.55;;;11.52;;
37205;SDS011;23099;42.636;23.198;2023-03-14T04:45:13;28.10;;;11.97;;
37205;SDS011;23099;42.636;23.198;2023-03-14T04:47:40;27.03;;;11.43;;
37205;SDS011;23099;42.636;23.198;2023-03-14T04:50:07;26.93;;;10.70;;
37205;SDS011;23099;42.636;23.198;2023-03-14T04:52:34;25.77;;;10.43;;
37205;SDS011;23099;42.636;23.198;2023-03-14T04:55:01;18.53;;;7.37;;
37205;SDS011;23099;42.636;23.198;2023-03-14T04:57:29;18.67;;;7.53;;
37205;SDS011;23099;42.636;23.198;2023-03-14T04:59:56;20.33;;;8.07;;
37205;SDS011;23099;42.636;23.198;2023-03-14T05:02:22;21.20;;;8.00;;
37205;SDS011;23099;42.636;23.198;2023-03-14T05:04:49;17.37;;;7.67;;
37205;SDS011;23099;42.636;23.198;2023-03-14T05:07:16;20.70;;;8.33;;
37205;SDS011;23099;42.636;23.198;2023-03-14T05:09:42;16.80;;;7.83;;
37205;SDS011;23099;42.636;23.198;2023-03-14T05:12:09;18.53;;;6.77;;
37205;SDS011;23099;42.636;23.198;2023-03-14T05:14:37;14.70;;;6.50;;
37205;SDS011;23099;42.636;23.198;2023-03-14T05:17:04;24.55;;;9.68;;
37205;SDS011;23099;42.636;23.198;2023-03-14T05:19:31;22.90;;;7.10;;
37205;SDS011;23099;42.636;23.198;2023-03-14T05:21:57;36.87;;;16.97;;
37205;SDS011;23099;42.636;23.198;2023-03-14T05:24:24;46.63;;;20.77;;
37205;SDS011;23099;42.636;23.198;2023-03-14T05:26:51;40.53;;;17.90;;
37205;SDS011;23099;42.636;23.198;2023-03-14T05:29:17;27.37;;;13.50;;
37205;SDS011;23099;42.636;23.198;2023-03-14T05:31:45;24.13;;;10.13;;
37205;SDS011;23099;42.636;23.198;2023-03-14T05:34:12;17.73;;;6.78;;
37205;SDS011;23099;42.636;23.198;2023-03-14T05:36:39;14.13;;;6.37;;
37205;SDS011;23099;42.636;23.198;2023-03-14T05:39:05;17.13;;;6.17;;
37205;SDS011;23099;42.636;23.198;2023-03-14T05:41:32;13.30;;;5.40;;
37205;SDS011;23099;42.636;23.198;2023-03-14T05:43:59;15.17;;;5.50;;
37205;SDS011;23099;42.636;23.198;2023-03-14T05:46:25;11.50;;;4.47;;
37205;SDS011;23099;42.636;23.198;2023-03-14T05:48:53;11.03;;;4.83;;
37205;SDS011;23099;42.636;23.198;2023-03-14T05:51:20;15.45;;;5.93;;
37205;SDS011;23099;42.636;23.198;2023-03-14T05:53:47;12.23;;;4.50;;
37205;SDS011;23099;42.636;23.198;2023-03-14T05:56:13;13.27;;;4.87;;
37205;SDS011;23099;42.636;23.198;2023-03-14T05:58:40;11.20;;;4.50;;
37205;SDS011;23099;42.636;23.198;2023-03-14T06:01:07;11.53;;;4.47;;
37205;SDS011;23099;42.636;23.198;2023-03-14T06:03:34;10.87;;;3.30;;
37205;SDS011;23099;42.636;23.198;2023-03-14T06:06:02;8.13;;;2.60;;
37205;SDS011;23099;42.636;23.198;2023-03-14T06:08:29;9.25;;;3.28;;
37205;SDS011;23099;42.636;23.198;2023-03-14T06:10:56;9.37;;;2.60;;
37205;SDS011;23099;42.636;23.198;2023-03-14T06:13:23;9.87;;;2.73;;
37205;SDS011;23099;42.636;23.198;2023-03-14T06:15:50;30.40;;;19.77;;
37205;SDS011;23099;42.636;23.198;2023-03-14T06:18:16;18.53;;;10.93;;
37205;SDS011;23099;42.636;23.198;2023-03-14T06:20:43;18.90;;;10.80;;
37205;SDS011;23099;42.636;23.198;2023-03-14T06:23:11;14.67;;;8.10;;
37205;SDS011;23099;42.636;23.198;2023-03-14T06:25:38;14.20;;;6.25;;
37205;SDS011;23099;42.636;23.198;2023-03-14T06:28:04;15.87;;;5.80;;
37205;SDS011;23099;42.636;23.198;2023-03-14T06:30:31;11.17;;;4.80;;
37205;SDS011;23099;42.636;23.198;2023-03-14T06:32:58;10.80;;;4.50;;
37205;SDS011;23099;42.636;23.198;2023-03-14T06:35:24;11.77;;;5.13;;
37205;SDS011;23099;42.636;23.198;2023-03-14T06:37:51;12.00;;;5.37;;
37205;SDS011;23099;42.636;23.198;2023-03-14T06:40:19;11.43;;;5.43;;
37205;SDS011;23099;42.636;23.198;2023-03-14T06:42:46;12.88;;;5.32;;
37205;SDS011;23099;42.636;23.198;2023-03-14T06:45:13;12.33;;;5.57;;
37205;SDS011;23099;42.636;23.198;2023-03-14T06:47:40;13.20;;;5.93;;
37205;SDS011;23099;42.636;23.198;2023-03-14T06:50:08;15.63;;;6.57;;
37205;SDS011;23099;42.636;23.198;2023-03-14T06:52:36;12.00;;;5.27;;
37205;SDS011;23099;42.636;23.198;2023-03-14T06:55:06;11.80;;;5.00;;
37205;SDS011;23099;42.636;23.198;2023-03-14T06:57:35;12.87;;;5.53;;
37205;SDS011;23099;42.636;23.198;2023-03-14T07:00:02;14.15;;;6.43;;
37205;SDS011;23099;42.636;23.198;2023-03-14T07:02:29;19.88;;;7.00;;
37205;SDS011;23099;42.636;23.198;2023-03-14T07:04:55;18.92;;;7.65;;
37205;SDS011;23099;42.636;23.198;2023-03-14T07:07:22;21.77;;;9.77;;
37205;SDS011;23099;42.636;23.198;2023-03-14T07:09:49;21.43;;;10.17;;
37205;SDS011;23099;42.636;23.198;2023-03-14T07:12:15;20.33;;;9.43;;
37205;SDS011;23099;42.636;23.198;2023-03-14T07:14:43;22.20;;;10.03;;
37205;SDS011;23099;42.636;23.198;2023-03-14T07:17:10;17.40;;;9.10;;
37205;SDS011;23099;42.636;23.198;2023-03-14T07:19:37;21.60;;;10.27;;
37205;SDS011;23099;42.636;23.198;2023-03-14T07:22:04;22.35;;;9.40;;
37205;SDS011;23099;42.636;23.198;2023-03-14T07:24:31;23.90;;;10.23;;
37205;SDS011;23099;42.636;23.198;2023-03-14T07:26:57;23.30;;;11.53;;
37205;SDS011;23099;42.636;23.198;2023-03-14T07:29:24;26.20;;;12.17;;
37205;SDS011;23099;42.636;23.198;2023-03-14T07:31:52;31.05;;;13.75;;
37205;SDS011;23099;42.636;23.198;2023-03-14T07:34:19;35.35;;;14.60;;
37205;SDS011;23099;42.636;23.198;2023-03-14T07:36:46;38.33;;;15.18;;
37205;SDS011;23099;42.636;23.198;2023-03-14T07:39:12;34.13;;;14.43;;
37205;SDS011;23099;42.636;23.198;2023-03-14T07:41:39;27.92;;;15.00;;
37205;SDS011;23099;42.636;23.198;2023-03-14T07:44:06;29.63;;;14.93;;
37205;SDS011;23099;42.636;23.198;2023-03-14T07:46:33;26.30;;;14.07;;
37205;SDS011;23099;42.636;23.198;2023-03-14T07:49:01;31.90;;;15.27;;
37205;SDS011;23099;42.636;23.198;2023-03-14T07:51:27;28.33;;;14.25;;
37205;SDS011;23099;42.636;23.198;2023-03-14T07:53:54;36.40;;;16.10;;
37205;SDS011;23099;42.636;23.198;2023-03-14T07:56:21;30.70;;;15.27;;
37205;SDS011;23099;42.636;23.198;2023-03-14T07:58:47;30.00;;;16.38;;
37205;SDS011;23099;42.636;23.198;2023-03-14T08:01:14;35.13;;;17.00;;
37205;SDS011;23099;42.636;23.198;2023-03-14T08:03:41;35.58;;;16.30;;
37205;SDS011;23099;42.636;23.198;2023-03-14T08:06:09;32.88;;;15.90;;
37205;SDS011;23099;42.636;23.198;2023-03-14T08:08:36;33.08;;;14.48;;
37205;SDS011;23099;42.636;23.198;2023-03-14T08:11:03;27.27;;;14.20;;
37205;SDS011;23099;42.636;23.198;2023-03-14T08:13:30;30.63;;;14.20;;
37205;SDS011;23099;42.636;23.198;2023-03-14T08:15:57;27.98;;;13.85;;
37205;SDS011;23099;42.636;23.198;2023-03-14T08:18:24;25.73;;;12.75;;
37205;SDS011;23099;42.636;23.198;2023-03-14T08:20:51;24.98;;;13.13;;
37205;SDS011;23099;42.636;23.198;2023-03-14T08:23:19;25.83;;;13.52;;
37205;SDS011;23099;42.636;23.198;2023-03-14T08:25:47;28.92;;;13.68;;
37205;SDS011;23099;42.636;23.198;2023-03-14T08:28:15;27.10;;;13.68;;
37205;SDS011;23099;42.636;23.198;2023-03-14T08:30:42;26.00;;;12.57;;
37205;SDS011;23099;42.636;23.198;2023-03-14T08:33:08;30.85;;;13.30;;
37205;SDS011;23099;42.636;23.198;2023-03-14T08:35:36;21.27;;;12.25;;
37205;SDS011;23099;42.636;23.198;2023-03-14T08:38:03;24.92;;;11.98;;
37205;SDS011;23099;42.636;23.198;2023-03-14T08:40:31;25.13;;;11.85;;
37205;SDS011;23099;42.636;23.198;2023-03-14T08:42:58;26.38;;;13.02;;
37205;SDS011;23099;42.636;23.198;2023-03-14T08:45:25;25.00;;;12.30;;
37205;SDS011;23099;42.636;23.198;2023-03-14T08:47:52;27.25;;;12.18;;
37205;SDS011;23099;42.636;23.198;2023-03-14T08:50:19;22.27;;;12.55;;
37205;SDS011;23099;42.636;23.198;2023-03-14T08:52:45;19.85;;;11.45;;
37205;SDS011;23099;42.636;23.198;2023-03-14T08:55:13;24.85;;;12.13;;
37205;SDS011;23099;42.636;23.198;2023-03-14T08:57:41;25.38;;;12.18;;
37205;SDS011;23099;42.636;23.198;2023-03-14T09:00:08;30.13;;;12.50;;
37205;SDS011;23099;42.636;23.198;2023-03-14T09:02:39;24.65;;;12.05;;
37205;SDS011;23099;42.636;23.198;2023-03-14T09:05:06;24.10;;;12.68;;
37205;SDS011;23099;42.636;23.198;2023-03-14T09:07:33;21.58;;;12.10;;
37205;SDS011;23099;42.636;23.198;2023-03-14T09:10:00;21.17;;;11.88;;
37205;SDS011;23099;42.636;23.198;2023-03-14T09:12:27;24.33;;;12.15;;
37205;SDS011;23099;42.636;23.198;2023-03-14T09:14:55;23.33;;;11.93;;
37205;SDS011;23099;42.636;23.198;2023-03-14T09:17:22;21.50;;;11.75;;
37205;SDS011;23099;42.636;23.198;2023-03-14T09:19:48;26.58;;;12.65;;
37205;SDS011;23099;42.636;23.198;2023-03-14T09:22:15;21.67;;;11.80;;
37205;SDS011;23099;42.636;23.198;2023-03-14T09:24:42;23.55;;;11.63;;
37205;SDS011;23099;42.636;23.198;2023-03-14T09:27:08;22.77;;;10.77;;
37205;SDS011;23099;42.636;23.198;2023-03-14T09:29:35;22.88;;;11.10;;
37205;SDS011;23099;42.636;23.198;2023-03-14T09:32:03;23.52;;;11.90;;
37205;SDS011;23099;42.636;23.198;2023-03-14T09:34:30;21.75;;;11.57;;
37205;SDS011;23099;42.636;23.198;2023-03-14T09:36:56;20.13;;;11.10;;
37205;SDS011;23099;42.636;23.198;2023-03-14T09:39:23;25.23;;;11.98;;
37205;SDS011;23099;42.636;23.198;2023-03-14T09:41:50;19.77;;;10.85;;
37205;SDS011;23099;42.636;23.198;2023-03-14T09:44:22;21.70;;;11.50;;
37205;SDS011;23099;42.636;23.198;2023-03-14T09:46:52;22.55;;;10.82;;
37205;SDS011;23099;42.636;23.198;2023-03-14T09:49:24;20.45;;;10.07;;
37205;SDS011;23099;42.636;23.198;2023-03-14T09:51:54;20.80;;;10.90;;
37205;SDS011;23099;42.636;23.198;2023-03-14T09:54:26;18.90;;;9.65;;
37205;SDS011;23099;42.636;23.198;2023-03-14T09:57:00;17.70;;;10.52;;
37205;SDS011;23099;42.636;23.198;2023-03-14T09:59:28;20.67;;;9.27;;
37205;SDS011;23099;42.636;23.198;2023-03-14T10:01:55;25.33;;;9.63;;
37205;SDS011;23099;42.636;23.198;2023-03-14T10:04:26;19.60;;;9.02;;
37205;SDS011;23099;42.636;23.198;2023-03-14T10:06:55;17.35;;;8.70;;
37205;SDS011;23099;42.636;23.198;2023-03-14T10:09:22;17.55;;;8.55;;
37205;SDS011;23099;42.636;23.198;2023-03-14T10:11:51;18.15;;;8.32;;
37205;SDS011;23099;42.636;23.198;2023-03-14T10:14:28;19.65;;;8.45;;
37205;SDS011;23099;42.636;23.198;2023-03-14T10:16:59;17.40;;;8.98;;
37205;SDS011;23099;42.636;23.198;2023-03-14T10:19:32;20.50;;;8.23;;
37205;SDS011;23099;42.636;23.198;2023-03-14T10:22:01;17.38;;;7.05;;
37205;SDS011;23099;42.636;23.198;2023-03-14T10:24:29;13.77;;;8.23;;
37205;SDS011;23099;42.636;23.198;2023-03-14T10:29:26;16.58;;;8.77;;
37205;SDS011;23099;42.636;23.198;2023-03-14T10:31:53;16.80;;;8.05;;
37205;SDS011;23099;42.636;23.198;2023-03-14T10:36:53;15.02;;;7.60;;
37205;SDS011;23099;42.636;23.198;2023-03-14T10:39:23;19.63;;;7.85;;
37205;SDS011;23099;42.636;23.198;2023-03-14T10:41:52;16.48;;;8.38;;
37205;SDS011;23099;42.636;23.198;2023-03-14T10:44:24;17.92;;;7.97;;
37205;SDS011;23099;42.636;23.198;2023-03-14T10:46:55;15.55;;;7.28;;
37205;SDS011;23099;42.636;23.198;2023-03-14T10:49:26;17.20;;;7.47;;
37205;SDS011;23099;42.636;23.198;2023-03-14T10:51:56;16.15;;;7.63;;
37205;SDS011;23099;42.636;23.198;2023-03-14T10:54:29;16.65;;;7.57;;
37205;SDS011;23099;42.636;23.198;2023-03-14T10:56:56;18.13;;;8.30;;
37205;SDS011;23099;42.636;23.198;2023-03-14T10:59:24;18.02;;;7.03;;
37205;SDS011;23099;42.636;23.198;2023-03-14T11:01:52;19.70;;;8.00;;
37205;SDS011;23099;42.636;23.198;2023-03-14T11:04:29;14.93;;;7.20;;
37205;SDS011;23099;42.636;23.198;2023-03-14T11:07:13;14.60;;;7.15;;
37205;SDS011;23099;42.636;23.198;2023-03-14T11:09:48;20.13;;;7.13;;
37205;SDS011;23099;42.636;23.198;2023-03-14T11:12:37;15.13;;;7.30;;
37205;SDS011;23099;42.636;23.198;2023-03-14T11:15:14;17.55;;;7.43;;
37205;SDS011;23099;42.636;23.198;2023-03-14T11:17:48;17.00;;;8.52;;
37205;SDS011;23099;42.636;23.198;2023-03-14T11:20:29;19.40;;;7.35;;
37205;SDS011;23099;42.636;23.198;2023-03-14T11:23:04;13.45;;;7.13;;
37205;SDS011;23099;42.636;23.198;2023-03-14T11:25:38;16.00;;;7.28;;
37205;SDS011;23099;42.636;23.198;2023-03-14T11:28:14;15.93;;;7.57;;
37205;SDS011;23099;42.636;23.198;2023-03-14T11:30:46;14.57;;;7.20;;
37205;SDS011;23099;42.636;23.198;2023-03-14T11:33:18;15.68;;;8.32;;
37205;SDS011;23099;42.636;23.198;2023-03-14T11:35:52;17.27;;;7.80;;
37205;SDS011;23099;42.636;23.198;2023-03-14T11:38:30;15.13;;;7.60;;
37205;SDS011;23099;42.636;23.198;2023-03-14T11:41:01;19.67;;;7.40;;
37205;SDS011;23099;42.636;23.198;2023-03-14T11:43:28;15.63;;;5.95;;
37205;SDS011;23099;42.636;23.198;2023-03-14T11:46:02;11.23;;;5.70;;
37205;SDS011;23099;42.636;23.198;2023-03-14T11:48:35;9.60;;;4.38;;
37205;SDS011;23099;42.636;23.198;2023-03-14T11:51:07;6.38;;;2.30;;
37205;SDS011;23099;42.636;23.198;2023-03-14T11:53:43;4.05;;;1.38;;
37205;SDS011;23099;42.636;23.198;2023-03-14T11:56:18;8.00;;;1.67;;
37205;SDS011;23099;42.636;23.198;2023-03-14T11:58:53;2.08;;;0.73;;
37205;SDS011;23099;42.636;23.198;2023-03-14T12:01:24;4.28;;;0.70;;
37205;SDS011;23099;42.636;23.198;2023-03-14T12:04:00;2.17;;;0.60;;
37205;SDS011;23099;42.636;23.198;2023-03-14T12:06:36;2.47;;;0.60;;
37205;SDS011;23099;42.636;23.198;2023-03-14T12:09:09;11.07;;;4.50;;
37205;SDS011;23099;42.636;23.198;2023-03-14T12:11:38;1.50;;;0.40;;
37205;SDS011;23099;42.636;23.198;2023-03-14T12:14:19;2.17;;;0.57;;
37205;SDS011;23099;42.636;23.198;2023-03-14T12:16:52;11.82;;;5.03;;
37205;SDS011;23099;42.636;23.198;2023-03-14T12:19:26;6.53;;;2.25;;
37205;SDS011;23099;42.636;23.198;2023-03-14T12:21:57;6.55;;;1.08;;
37205;SDS011;23099;42.636;23.198;2023-03-14T12:24:28;9.55;;;4.07;;
37205;SDS011;23099;42.636;23.198;2023-03-14T12:26:58;11.48;;;4.63;;
37205;SDS011;23099;42.636;23.198;2023-03-14T12:29:26;11.68;;;4.20;;
37205;SDS011;23099;42.636;23.198;2023-03-14T12:32:09;10.75;;;3.58;;
37205;SDS011;23099;42.636;23.198;2023-03-14T12:34:48;11.63;;;3.35;;
37205;SDS011;23099;42.636;23.198;2023-03-14T12:37:17;11.45;;;4.10;;
37205;SDS011;23099;42.636;23.198;2023-03-14T12:39:56;10.70;;;3.95;;
37205;SDS011;23099;42.636;23.198;2023-03-14T12:42:38;10.00;;;3.67;;
37205;SDS011;23099;42.636;23.198;2023-03-14T12:45:21;10.43;;;3.97;;
37205;SDS011;23099;42.636;23.198;2023-03-14T12:47:52;11.82;;;3.15;;
37205;SDS011;23099;42.636;23.198;2023-03-14T12:50:29;7.63;;;3.17;;
37205;SDS011;23099;42.636;23.198;2023-03-14T12:53:13;8.60;;;2.90;;
37205;SDS011;23099;42.636;23.198;2023-03-14T12:56:05;7.25;;;3.40;;
37205;SDS011;23099;42.636;23.198;2023-03-14T12:58:38;9.23;;;3.45;;
37205;SDS011;23099;42.636;23.198;2023-03-14T13:01:14;8.35;;;3.03;;
37205;SDS011;23099;42.636;23.198;2023-03-14T13:03:45;8.52;;;2.65;;
37205;SDS011;23099;42.636;23.198;2023-03-14T13:09:34;8.35;;;2.72;;
37205;SDS011;23099;42.636;23.198;2023-03-14T13:12:18;5.85;;;2.25;;
37205;SDS011;23099;42.636;23.198;2023-03-14T13:14:49;7.13;;;1.75;;
37205;SDS011;23099;42.636;23.198;2023-03-14T13:17:19;3.47;;;0.93;;
37205;SDS011;23099;42.636;23.198;2023-03-14T13:19:52;2.53;;;0.80;;
37205;SDS011;23099;42.636;23.198;2023-03-14T13:22:23;3.17;;;0.70;;
37205;SDS011;23099;42.636;23.198;2023-03-14T13:24:58;2.33;;;0.43;;
37205;SDS011;23099;42.636;23.198;2023-03-14T13:27:29;5.40;;;1.30;;
37205;SDS011;23099;42.636;23.198;2023-03-14T13:29:57;5.15;;;1.67;;
37205;SDS011;23099;42.636;23.198;2023-03-14T13:32:26;6.35;;;1.70;;
37205;SDS011;23099;42.636;23.198;2023-03-14T13:34:55;5.20;;;1.27;;
37205;SDS011;23099;42.636;23.198;2023-03-14T13:37:23;8.25;;;1.30;;
37205;SDS011;23099;42.636;23.198;2023-03-14T13:39:51;6.40;;;1.13;;
37205;SDS011;23099;42.636;23.198;2023-03-14T13:42:20;5.47;;;0.80;;
37205;SDS011;23099;42.636;23.198;2023-03-14T13:44:52;2.17;;;0.55;;
37205;SDS011;23099;42.636;23.198;2023-03-14T13:47:21;1.88;;;0.47;;
37205;SDS011;23099;42.636;23.198;2023-03-14T13:49:50;1.50;;;0.40;;
37205;SDS011;23099;42.636;23.198;2023-03-14T13:52:24;1.63;;;0.40;;
37205;SDS011;23099;42.636;23.198;2023-03-14T13:54:55;1.85;;;0.40;;
37205;SDS011;23099;42.636;23.198;2023-03-14T13:57:23;1.67;;;0.40;;
37205;SDS011;23099;42.636;23.198;2023-03-14T14:00:01;1.88;;;0.47;;
37205;SDS011;23099;42.636;23.198;2023-03-14T14:02:35;4.13;;;0.60;;
37205;SDS011;23099;42.636;23.198;2023-03-14T14:05:04;1.38;;;0.40;;
37205;SDS011;23099;42.636;23.198;2023-03-14T14:07:31;2.28;;;0.70;;
37205;SDS011;23099;42.636;23.198;2023-03-14T14:09:58;5.03;;;1.10;;
37205;SDS011;23099;42.636;23.198;2023-03-14T14:12:27;4.43;;;0.90;;
37205;SDS011;23099;42.636;23.198;2023-03-14T14:14:58;2.63;;;0.40;;
37205;SDS011;23099;42.636;23.198;2023-03-14T14:17:31;3.35;;;0.50;;
37205;SDS011;23099;42.636;23.198;2023-03-14T14:20:02;4.95;;;1.33;;
37205;SDS011;23099;42.636;23.198;2023-03-14T14:22:31;7.45;;;1.23;;
37205;SDS011;23099;42.636;23.198;2023-03-14T14:24:59;3.77;;;1.20;;
37205;SDS011;23099;42.636;23.198;2023-03-14T14:27:29;6.53;;;1.30;;
37205;SDS011;23099;42.636;23.198;2023-03-14T14:30:02;8.15;;;1.45;;
37205;SDS011;23099;42.636;23.198;2023-03-14T14:32:34;9.10;;;1.02;;
37205;SDS011;23099;42.636;23.198;2023-03-14T14:35:02;3.88;;;1.10;;
37205;SDS011;23099;42.636;23.198;2023-03-14T14:37:30;5.03;;;1.10;;
37205;SDS011;23099;42.636;23.198;2023-03-14T14:39:59;6.03;;;1.10;;
37205;SDS011;23099;42.636;23.198;2023-03-14T14:42:29;3.85;;;0.90;;